This is the latest recevied weather packets stored in our database for station/object IZ7EXI-13. If no packets are shown the sender has not sent any weather packets the latest 10 day(s).
| Time | Temp. | Humidity | Pressure | Rain* | Wind** | Luminosity | Snow |
|---|---|---|---|---|---|---|---|
| 1777360027 | 21.11° C | 51% | 1019.2 hPa | - | - | - | - |
| 1777359990 | 21.11° C | 51% | 1019.2 hPa | - | - | - | - |
| 1777359126 | 20.56° C | 55% | 1019.2 hPa | - | - | - | - |
| 1777359090 | 20.56° C | 55% | 1019.2 hPa | - | - | - | - |
| 1777358190 | 20° C | 57% | 1019.2 hPa | - | - | - | - |
| 1777357324 | 18.89° C | 59% | 1019.3 hPa | - | - | - | - |
| 1777357289 | 18.89° C | 59% | 1019.3 hPa | - | - | - | - |
| 1777356414 | 17.78° C | 60% | 1019.3 hPa | - | - | - | - |
| 1777356389 | 17.78° C | 60% | 1019.3 hPa | - | - | - | - |
| 1777355489 | 17.22° C | 60% | 1019.3 hPa | - | - | - | - |
| 1777354589 | 16.67° C | 61% | 1019.2 hPa | - | - | - | - |
| 1777353688 | 16.11° C | 61% | 1019.2 hPa | - | - | - | - |
| 1777352841 | 15° C | 62% | 1019 hPa | - | - | - | - |
| 1777352788 | 15° C | 62% | 1019 hPa | - | - | - | - |
| 1777351888 | 15° C | 62% | 1018.9 hPa | - | - | - | - |
| 1777350988 | 15° C | 62% | 1018.8 hPa | - | - | - | - |
| 1777350087 | 15° C | 62% | 1018.8 hPa | - | - | - | - |
| 1777349187 | 14.44° C | 63% | 1018.7 hPa | - | - | - | - |
| 1777348287 | 14.44° C | 63% | 1018.6 hPa | - | - | - | - |
| 1777347387 | 13.33° C | 64% | 1018.7 hPa | - | - | - | - |
| 1777346487 | 13.89° C | 63% | 1018.6 hPa | - | - | - | - |
| 1777345619 | 14.44° C | 62% | 1018.6 hPa | - | - | - | - |
| 1777345586 | 14.44° C | 62% | 1018.6 hPa | - | - | - | - |
| 1777344686 | 15.56° C | 59% | 1018.5 hPa | - | - | - | - |
| 1777343785 | 15.56° C | 59% | 1018.6 hPa | - | - | - | - |
* Rain since midnight (hover to see other rain measurements)
** Current wind speed in m/s (hover to see current wind gust speed)